createdAt,value
2023-03-04T00:02:24.806Z,29.55
2023-03-04T00:05:47.392Z,22.73
2023-03-04T00:09:09.413Z,27.40
2023-03-04T00:12:31.407Z,23.80
2023-03-04T00:15:53.452Z,24.50
2023-03-04T00:19:15.746Z,24.73
2023-03-04T00:22:38.208Z,21.77
2023-03-04T00:26:00.205Z,23.83
2023-03-04T00:29:22.266Z,26.75
2023-03-04T00:32:44.315Z,24.92
2023-03-04T00:36:06.749Z,27.25
2023-03-04T00:39:29.112Z,21.98
2023-03-04T00:42:51.121Z,19.15
2023-03-04T00:46:13.234Z,27.40
2023-03-04T00:49:35.325Z,21.17
2023-03-04T00:52:57.309Z,23.70
2023-03-04T00:56:19.341Z,22.38
2023-03-04T00:59:43.793Z,20.33
2023-03-04T01:03:05.813Z,17.80
2023-03-04T01:06:27.899Z,19.60
2023-03-04T01:09:50.007Z,23.08
2023-03-04T01:13:12.110Z,21.40
2023-03-04T01:16:34.207Z,26.50
2023-03-04T01:19:56.178Z,25.13
2023-03-04T01:23:18.142Z,24.48
2023-03-04T01:26:40.100Z,23.27
2023-03-04T01:30:02.361Z,28.75
2023-03-04T01:33:24.980Z,25.45
2023-03-04T01:36:46.991Z,26.92
2023-03-04T01:40:10.073Z,23.67
2023-03-04T01:43:36.517Z,24.58
2023-03-04T01:46:58.653Z,24.63
2023-03-04T01:50:35.676Z,25.80
2023-03-04T01:53:58.818Z,22.85
2023-03-04T01:57:25.811Z,18.67
2023-03-04T02:00:48.008Z,21.05
2023-03-04T02:04:11.066Z,29.67
2023-03-04T02:07:33.352Z,28.65
2023-03-04T02:10:56.466Z,18.85
2023-03-04T02:14:19.404Z,23.33
2023-03-04T02:17:41.403Z,22.23
2023-03-04T02:21:21.626Z,25.42
2023-03-04T02:24:54.573Z,23.80
2023-03-04T02:28:17.136Z,23.88
2023-03-04T02:31:53.713Z,21.23
2023-03-04T02:35:18.404Z,27.75
2023-03-04T02:38:41.339Z,31.55
2023-03-04T02:42:04.226Z,25.38
2023-03-04T02:45:31.849Z,29.02
2023-03-04T02:48:53.933Z,28.98
2023-03-04T02:52:23.925Z,31.52
2023-03-04T02:59:09.815Z,30.60
2023-03-04T03:02:31.857Z,34.42
2023-03-04T03:05:54.863Z,35.85
2023-03-04T03:09:17.883Z,27.60
2023-03-04T03:12:39.991Z,28.80
2023-03-04T03:16:02.191Z,31.80
2023-03-04T03:19:24.233Z,33.97
2023-03-04T03:22:47.973Z,30.02
2023-03-04T03:26:10.136Z,35.88
2023-03-04T03:29:32.301Z,36.97
2023-03-04T03:32:54.451Z,35.47
2023-03-04T03:36:16.606Z,36.10
2023-03-04T03:39:38.597Z,37.88
2023-03-04T03:43:00.525Z,36.92
2023-03-04T03:46:22.810Z,36.03
2023-03-04T03:49:44.897Z,34.55
2023-03-04T03:53:06.854Z,31.92
2023-03-04T03:56:28.912Z,35.47
2023-03-04T03:59:50.833Z,31.45
2023-03-04T04:03:16.130Z,30.70
2023-03-04T04:06:38.113Z,31.55
2023-03-04T04:10:00.142Z,36.47
2023-03-04T04:13:22.182Z,28.40
2023-03-04T04:16:44.192Z,34.22
2023-03-04T04:20:08.196Z,30.83
2023-03-04T04:23:30.168Z,36.80
2023-03-04T04:26:52.157Z,36.47
2023-03-04T04:30:14.708Z,26.15
2023-03-04T04:33:36.981Z,34.70
2023-03-04T04:36:59.004Z,30.50
2023-03-04T04:40:21.785Z,29.70
2023-03-04T04:43:43.705Z,27.83
2023-03-04T04:47:07.346Z,31.52
2023-03-04T04:50:32.528Z,32.13
2023-03-04T04:53:55.324Z,30.05
2023-03-04T04:57:17.319Z,33.72
2023-03-04T05:00:39.260Z,35.15
2023-03-04T05:04:01.360Z,34.03
2023-03-04T05:07:23.353Z,27.77
2023-03-04T05:10:45.412Z,32.05
2023-03-04T05:14:07.449Z,31.92
2023-03-04T05:17:29.397Z,32.25
2023-03-04T05:20:57.558Z,32.65
2023-03-04T05:24:19.649Z,29.17
2023-03-04T05:27:41.843Z,29.23
2023-03-04T05:31:04.224Z,34.25
2023-03-04T05:34:26.337Z,36.65
2023-03-04T05:37:48.284Z,28.92
2023-03-04T05:41:10.537Z,31.77
2023-03-04T05:44:32.484Z,31.02
2023-03-04T05:47:55.316Z,30.33
2023-03-04T05:51:17.295Z,26.88
2023-03-04T05:54:39.564Z,29.70
2023-03-04T05:58:01.569Z,34.55
2023-03-04T06:01:23.713Z,27.15
2023-03-04T06:04:45.727Z,34.65
2023-03-04T06:08:07.750Z,32.10
2023-03-04T06:11:29.791Z,34.80
2023-03-04T06:14:51.755Z,27.23
2023-03-04T06:18:14.033Z,33.40
2023-03-04T06:21:36.284Z,31.52
2023-03-04T06:24:58.319Z,33.72
2023-03-04T06:28:20.537Z,33.13
2023-03-04T06:31:42.538Z,34.17
2023-03-04T06:35:04.909Z,36.13
2023-03-04T06:38:27.418Z,35.80
2023-03-04T06:41:49.463Z,41.80
2023-03-04T06:45:11.926Z,44.80
2023-03-04T06:48:34.248Z,48.15
2023-03-04T06:51:56.251Z,59.78
2023-03-04T06:55:18.284Z,43.92
2023-03-04T06:58:40.378Z,43.00
2023-03-04T07:02:02.723Z,38.58
2023-03-04T07:05:24.738Z,31.98
2023-03-04T07:08:47.195Z,32.75
2023-03-04T07:12:09.181Z,30.80
2023-03-04T07:15:31.388Z,32.05
2023-03-04T07:18:53.368Z,35.15
2023-03-04T07:22:15.400Z,29.63
2023-03-04T07:25:38.346Z,28.08
2023-03-04T07:29:02.243Z,25.90
2023-03-04T07:32:24.677Z,32.17
2023-03-04T07:35:46.821Z,33.53
2023-03-04T07:39:11.459Z,36.42
2023-03-04T07:42:34.377Z,25.48
2023-03-04T07:46:02.724Z,26.60
2023-03-04T07:49:24.814Z,24.75
2023-03-04T07:52:48.946Z,25.90
2023-03-04T07:56:15.372Z,31.73
2023-03-04T07:59:38.772Z,26.38
2023-03-04T08:03:01.894Z,26.17
2023-03-04T08:06:26.754Z,26.48
2023-03-04T08:09:49.425Z,21.90
2023-03-04T08:13:11.494Z,22.80
2023-03-04T08:16:33.683Z,27.23
2023-03-04T08:19:56.752Z,23.52
2023-03-04T08:23:20.361Z,27.92
2023-03-04T08:26:48.595Z,29.38
2023-03-04T08:30:14.375Z,31.40
2023-03-04T08:33:36.542Z,22.35
2023-03-04T08:36:58.591Z,19.30
2023-03-04T08:40:20.545Z,25.50
2023-03-04T08:43:43.640Z,25.08
2023-03-04T08:47:09.218Z,25.58
2023-03-04T08:50:32.516Z,25.52
2023-03-04T08:53:55.196Z,21.67
2023-03-04T08:57:17.570Z,24.08
2023-03-04T09:00:44.092Z,62.80
2023-03-04T09:04:06.080Z,28.23
2023-03-04T09:07:28.504Z,21.17
2023-03-04T09:10:54.790Z,23.85
2023-03-04T09:14:17.387Z,32.75
2023-03-04T09:17:40.620Z,28.02
2023-03-04T09:21:02.613Z,23.55
2023-03-04T09:24:24.677Z,26.50
2023-03-04T09:27:47.528Z,24.55
2023-03-04T09:31:14.971Z,28.88
2023-03-04T09:34:37.109Z,25.13
2023-03-04T09:38:00.979Z,23.08
2023-03-04T09:41:29.086Z,20.00
2023-03-04T09:44:53.859Z,25.20
2023-03-04T09:48:24.680Z,25.25
2023-03-04T09:51:56.943Z,26.02
2023-03-04T09:55:27.716Z,22.90
2023-03-04T09:59:04.139Z,19.38
2023-03-04T10:02:53.361Z,27.83
2023-03-04T10:06:21.197Z,32.05
2023-03-04T10:10:05.730Z,21.00
2023-03-04T10:14:03.642Z,26.13
2023-03-04T10:17:34.481Z,30.88
2023-03-04T10:21:25.437Z,26.23
2023-03-04T10:24:48.058Z,25.15
2023-03-04T10:28:22.237Z,28.85
2023-03-04T10:31:46.430Z,24.02
2023-03-04T10:35:13.984Z,23.13
2023-03-04T10:38:39.895Z,24.88
2023-03-04T10:42:15.601Z,22.15
2023-03-04T10:45:41.174Z,27.83
2023-03-04T10:49:04.481Z,27.25
2023-03-04T10:52:31.027Z,26.40
2023-03-04T10:55:53.032Z,28.58
2023-03-04T10:59:44.364Z,28.00
2023-03-04T11:03:29.697Z,25.23
2023-03-04T11:06:53.715Z,22.63
2023-03-04T11:10:23.476Z,26.65
2023-03-04T11:13:59.725Z,19.05
2023-03-04T11:17:27.899Z,19.52
2023-03-04T11:20:51.147Z,21.23
2023-03-04T11:24:28.928Z,29.17
2023-03-04T11:28:11.957Z,20.73
2023-03-04T11:31:43.405Z,22.58
2023-03-04T11:35:16.614Z,23.17
2023-03-04T11:38:47.137Z,25.75
2023-03-04T11:42:50.990Z,25.98
2023-03-04T11:46:28.417Z,21.75
2023-03-04T11:50:03.742Z,24.33
2023-03-04T11:53:59.015Z,23.33
2023-03-04T11:57:51.982Z,24.13
2023-03-04T12:01:25.521Z,23.67
2023-03-04T12:05:26.805Z,25.38
2023-03-04T12:08:54.355Z,25.73
2023-03-04T12:12:20.466Z,26.52
2023-03-04T12:15:56.996Z,30.40
2023-03-04T12:19:43.062Z,28.55
2023-03-04T12:23:12.738Z,28.17
2023-03-04T12:27:02.107Z,24.00
2023-03-04T12:30:40.428Z,26.75
2023-03-04T12:34:28.152Z,29.65
2023-03-04T12:37:56.712Z,37.85
2023-03-04T12:41:43.926Z,30.00
2023-03-04T12:45:28.938Z,28.60
2023-03-04T12:48:56.600Z,24.50
2023-03-04T12:52:32.645Z,27.98
2023-03-04T12:55:57.665Z,33.08
2023-03-04T12:59:23.851Z,27.25
2023-03-04T13:02:49.600Z,31.75
2023-03-04T13:06:29.548Z,26.38
2023-03-04T13:10:01.423Z,34.80
2023-03-04T13:13:42.062Z,25.67
2023-03-04T13:17:43.774Z,29.48
2023-03-04T13:21:07.990Z,27.48
2023-03-04T13:24:50.522Z,29.33
2023-03-04T13:28:19.610Z,24.40
2023-03-04T13:32:02.192Z,29.23
2023-03-04T13:35:49.153Z,25.35
2023-03-04T13:39:17.030Z,26.10
2023-03-04T13:42:41.962Z,33.95
2023-03-04T13:46:19.444Z,25.73
2023-03-04T13:49:41.873Z,29.05
2023-03-04T13:53:31.209Z,28.38
2023-03-04T13:57:16.632Z,31.67
2023-03-04T14:00:49.513Z,26.95
2023-03-04T14:04:20.062Z,33.88
2023-03-04T14:07:42.406Z,46.92
2023-03-04T14:11:04.652Z,30.35
2023-03-04T14:14:48.943Z,27.83
2023-03-04T14:18:12.440Z,28.52
2023-03-04T14:21:37.104Z,25.55
2023-03-04T14:25:21.958Z,28.65
2023-03-04T14:28:49.643Z,29.10
2023-03-04T14:32:12.679Z,28.38
2023-03-04T14:35:35.770Z,26.65
2023-03-04T14:39:04.049Z,34.17
2023-03-04T14:42:37.398Z,31.20
2023-03-04T14:46:01.954Z,27.48
2023-03-04T14:49:24.420Z,32.22
2023-03-04T14:52:48.760Z,34.10
2023-03-04T14:56:37.223Z,29.30
2023-03-04T15:00:20.385Z,25.45
2023-03-04T15:03:46.166Z,30.65
2023-03-04T15:07:17.560Z,35.03
2023-03-04T15:10:40.944Z,30.55
2023-03-04T15:14:03.037Z,29.90
2023-03-04T15:17:40.071Z,28.40
2023-03-04T15:21:06.312Z,28.42
2023-03-04T15:24:28.517Z,25.92
2023-03-04T15:27:52.225Z,33.90
2023-03-04T15:31:19.312Z,31.50
2023-03-04T15:34:41.295Z,29.02
2023-03-04T15:38:06.233Z,33.20
2023-03-04T15:41:28.568Z,32.85
2023-03-04T15:44:50.690Z,40.13
2023-03-04T15:48:15.928Z,31.25
2023-03-04T15:51:38.360Z,30.73
2023-03-04T15:55:00.740Z,29.85
2023-03-04T15:58:23.185Z,32.17
2023-03-04T16:01:46.665Z,35.90
2023-03-04T16:05:09.328Z,42.83
2023-03-04T16:08:31.304Z,31.55
2023-03-04T16:11:56.397Z,31.58
2023-03-04T16:15:24.449Z,30.30
2023-03-04T16:18:48.736Z,35.20
2023-03-04T16:22:15.510Z,37.15
2023-03-04T16:25:37.883Z,38.28
2023-03-04T16:29:00.728Z,34.10
2023-03-04T16:32:24.626Z,34.10
2023-03-04T16:35:47.739Z,29.05
2023-03-04T16:39:22.377Z,26.52
2023-03-04T16:43:09.154Z,29.45
2023-03-04T16:46:31.262Z,27.58
2023-03-04T16:49:54.139Z,31.35
2023-03-04T16:53:34.002Z,29.45
2023-03-04T16:56:57.772Z,35.10
2023-03-04T17:00:22.634Z,36.45
2023-03-04T17:03:54.972Z,34.95
2023-03-04T17:07:17.978Z,34.60
2023-03-04T17:10:40.677Z,41.95
2023-03-04T17:14:03.862Z,39.42
2023-03-04T17:17:26.407Z,38.75
2023-03-04T17:20:48.962Z,39.42
2023-03-04T17:24:12.026Z,49.05
2023-03-04T17:27:34.673Z,46.88
2023-03-04T17:30:56.674Z,43.92
2023-03-04T17:34:19.429Z,40.38
2023-03-04T17:37:41.669Z,36.80
2023-03-04T17:41:10.515Z,46.28
2023-03-04T17:44:32.689Z,39.63
2023-03-04T17:47:54.665Z,42.88
2023-03-04T17:51:16.783Z,39.40
2023-03-04T17:54:38.777Z,39.92
2023-03-04T17:58:00.767Z,36.50
2023-03-04T18:01:23.179Z,38.45
2023-03-04T18:04:47.683Z,37.17
2023-03-04T18:08:09.637Z,42.58
2023-03-04T18:11:34.800Z,35.70
2023-03-04T18:14:56.834Z,37.47
2023-03-04T18:18:18.898Z,44.42
2023-03-04T18:21:40.928Z,41.35
2023-03-04T18:25:02.969Z,45.17
2023-03-04T18:28:25.306Z,59.00
2023-03-04T18:31:47.548Z,66.15
2023-03-04T18:35:10.079Z,54.38
2023-03-04T18:38:32.385Z,50.00
2023-03-04T18:41:54.606Z,44.53
2023-03-04T18:45:17.460Z,58.85
2023-03-04T18:48:47.260Z,41.63
2023-03-04T18:52:09.258Z,125.57
2023-03-04T18:55:31.936Z,42.45
2023-03-04T18:58:54.583Z,40.10
2023-03-04T19:02:31.191Z,39.67
2023-03-04T19:05:55.026Z,43.38
2023-03-04T19:09:17.010Z,44.55
2023-03-04T19:12:39.280Z,47.30
2023-03-04T19:16:01.337Z,51.92
2023-03-04T19:19:23.432Z,53.45
2023-03-04T19:22:45.438Z,49.47
2023-03-04T19:26:08.676Z,54.40
2023-03-04T19:29:30.792Z,59.90
2023-03-04T19:32:52.859Z,48.63
2023-03-04T19:36:14.880Z,62.05
2023-03-04T19:39:38.596Z,56.00
2023-03-04T19:43:00.817Z,56.28
2023-03-04T19:46:23.015Z,60.38
2023-03-04T19:49:45.163Z,62.78
2023-03-04T19:53:07.152Z,66.15
2023-03-04T19:56:29.568Z,65.80
2023-03-04T19:59:51.580Z,74.43
2023-03-04T20:03:13.854Z,61.67
2023-03-04T20:06:39.312Z,60.33
2023-03-04T20:10:01.551Z,56.22
2023-03-04T20:13:23.513Z,51.90
2023-03-04T20:16:45.542Z,63.22
2023-03-04T20:20:10.720Z,65.15
2023-03-04T20:23:33.409Z,59.42
2023-03-04T20:26:55.727Z,47.72
2023-03-04T20:30:18.307Z,64.80
2023-03-04T20:33:40.306Z,54.65
2023-03-04T20:37:02.290Z,56.28
2023-03-04T20:40:24.254Z,55.42
2023-03-04T20:43:46.229Z,56.30
2023-03-04T20:47:08.221Z,66.30
2023-03-04T20:50:30.428Z,54.45
2023-03-04T20:53:54.109Z,53.83
2023-03-04T20:57:16.107Z,52.40
2023-03-04T21:00:38.390Z,52.50
2023-03-04T21:04:01.672Z,51.25
2023-03-04T21:07:24.388Z,51.28
2023-03-04T21:10:49.301Z,52.30
2023-03-04T21:14:22.100Z,52.22
2023-03-04T21:17:44.131Z,61.40
2023-03-04T21:21:15.517Z,54.22
2023-03-04T21:24:40.079Z,58.67
2023-03-04T21:28:02.273Z,58.63
2023-03-04T21:31:30.993Z,48.22
2023-03-04T21:34:54.627Z,49.50
2023-03-04T21:38:16.759Z,54.58
2023-03-04T21:41:38.711Z,50.28
2023-03-04T21:45:00.950Z,56.15
2023-03-04T21:48:24.437Z,57.13
2023-03-04T21:51:46.720Z,55.67
2023-03-04T21:55:09.140Z,60.03
2023-03-04T21:58:32.057Z,61.33
2023-03-04T22:01:55.182Z,58.45
2023-03-04T22:05:19.055Z,55.70
2023-03-04T22:08:42.034Z,58.90
2023-03-04T22:12:04.302Z,54.55
2023-03-04T22:15:26.426Z,62.05
2023-03-04T22:18:48.632Z,58.85
2023-03-04T22:22:10.611Z,63.72
2023-03-04T22:25:35.732Z,55.72
2023-03-04T22:28:58.644Z,56.17
2023-03-04T22:32:21.366Z,66.40
2023-03-04T22:35:44.446Z,67.38
2023-03-04T22:39:08.704Z,58.03
2023-03-04T22:42:30.777Z,60.10
2023-03-04T22:45:52.885Z,60.40
2023-03-04T22:49:15.235Z,63.33
2023-03-04T22:52:38.068Z,65.85
2023-03-04T22:56:00.450Z,69.05
2023-03-04T22:59:22.403Z,65.45
2023-03-04T23:02:44.663Z,59.50
2023-03-04T23:06:11.990Z,61.22
2023-03-04T23:09:33.968Z,61.83
2023-03-04T23:12:56.238Z,65.38
2023-03-04T23:16:19.499Z,63.40
2023-03-04T23:19:41.584Z,59.50
2023-03-04T23:23:03.683Z,65.05
2023-03-04T23:26:28.130Z,58.92
2023-03-04T23:29:50.077Z,59.15
2023-03-04T23:33:12.109Z,58.08
2023-03-04T23:36:36.022Z,61.55
2023-03-04T23:39:58.210Z,59.97
2023-03-04T23:43:20.253Z,57.90
2023-03-04T23:46:42.404Z,54.70
2023-03-04T23:50:06.024Z,57.47
2023-03-04T23:53:29.457Z,54.05
2023-03-04T23:56:51.440Z,55.58
